createdAt,value
2022-09-22T00:03:43.636Z,1.80
2022-09-22T00:08:51.488Z,2.00
2022-09-22T00:14:01.891Z,1.70
2022-09-22T00:19:26.909Z,1.80
2022-09-22T00:24:29.730Z,1.70
2022-09-22T00:29:31.985Z,1.70
2022-09-22T00:34:33.765Z,1.80
2022-09-22T00:39:37.005Z,2.03
2022-09-22T00:44:40.491Z,1.80
2022-09-22T00:49:53.887Z,1.92
2022-09-22T00:55:00.886Z,1.60
2022-09-22T01:00:06.492Z,1.73
2022-09-22T01:05:09.141Z,1.65
2022-09-22T01:10:11.390Z,1.52
2022-09-22T01:15:13.071Z,1.80
2022-09-22T01:20:45.335Z,1.70
2022-09-22T01:26:14.390Z,2.60
2022-09-22T01:31:38.945Z,2.77
2022-09-22T01:37:11.631Z,3.05
2022-09-22T01:42:17.161Z,2.72
2022-09-22T01:47:23.065Z,1.90
2022-09-22T01:52:31.125Z,2.17
2022-09-22T01:57:54.537Z,2.25
2022-09-22T02:03:10.934Z,1.98
2022-09-22T02:08:21.805Z,1.75
2022-09-22T02:13:23.756Z,2.03
2022-09-22T02:18:30.589Z,2.22
2022-09-22T02:23:32.596Z,2.20
2022-09-22T02:28:38.659Z,1.45
2022-09-22T02:33:41.501Z,2.63
2022-09-22T02:38:56.296Z,2.78
2022-09-22T02:44:13.373Z,2.70
2022-09-22T02:49:18.304Z,3.20
2022-09-22T02:54:20.424Z,2.40
2022-09-22T02:59:22.253Z,2.13
2022-09-22T03:04:24.077Z,2.40
2022-09-22T03:09:25.896Z,2.38
2022-09-22T03:14:27.721Z,2.20
2022-09-22T03:19:29.318Z,2.28
2022-09-22T03:24:30.941Z,2.45
2022-09-22T03:29:32.905Z,2.10
2022-09-22T03:34:35.005Z,2.20
2022-09-22T03:39:36.592Z,2.30
2022-09-22T03:44:38.404Z,2.83
2022-09-22T03:49:40.403Z,2.55
2022-09-22T03:54:42.099Z,2.60
2022-09-22T03:59:43.685Z,2.00
2022-09-22T04:04:45.298Z,2.53
2022-09-22T04:09:46.921Z,2.78
2022-09-22T04:14:48.770Z,2.78
2022-09-22T04:19:50.475Z,2.47
2022-09-22T04:24:52.393Z,2.60
2022-09-22T04:29:54.187Z,2.90
2022-09-22T04:34:55.832Z,2.50
2022-09-22T04:39:59.181Z,2.80
2022-09-22T04:45:03.019Z,2.60
2022-09-22T04:50:05.391Z,2.75
2022-09-22T04:55:08.184Z,2.30
2022-09-22T05:00:10.502Z,2.53
2022-09-22T05:05:12.985Z,2.60
2022-09-22T05:10:17.897Z,2.50
2022-09-22T05:15:20.744Z,2.78
2022-09-22T05:20:22.597Z,2.88
2022-09-22T05:25:25.285Z,2.40
2022-09-22T05:30:27.241Z,2.40
2022-09-22T05:35:32.985Z,2.53
2022-09-22T05:40:37.585Z,2.67
2022-09-22T05:45:39.867Z,3.17
2022-09-22T05:50:43.588Z,4.25
2022-09-22T05:55:45.396Z,3.10
2022-09-22T06:00:47.298Z,3.40
2022-09-22T06:05:49.609Z,3.03
2022-09-22T06:10:51.520Z,2.78
2022-09-22T06:15:53.147Z,2.80
2022-09-22T06:20:56.286Z,2.95
2022-09-22T06:25:59.235Z,3.50
2022-09-22T06:31:01.720Z,2.67
2022-09-22T06:36:07.186Z,2.70
2022-09-22T06:41:09.481Z,3.45
2022-09-22T06:46:13.549Z,3.20
2022-09-22T06:51:15.177Z,2.58
2022-09-22T06:56:19.730Z,2.40
2022-09-22T07:01:21.463Z,2.78
2022-09-22T07:06:23.112Z,2.40
2022-09-22T07:11:25.050Z,2.78
2022-09-22T07:16:26.936Z,2.70
2022-09-22T07:21:34.957Z,2.55
2022-09-22T07:26:38.986Z,2.55
2022-09-22T07:31:41.912Z,2.60
2022-09-22T07:36:45.092Z,2.45
2022-09-22T07:41:48.040Z,2.00
2022-09-22T07:46:49.774Z,2.47
2022-09-22T07:51:55.240Z,2.42
2022-09-22T07:56:58.800Z,2.50
2022-09-22T08:02:01.198Z,2.50
2022-09-22T08:07:03.155Z,1.95
2022-09-22T08:12:05.458Z,2.67
2022-09-22T08:17:12.173Z,2.00
2022-09-22T08:22:13.744Z,2.10
2022-09-22T08:27:15.336Z,2.83
2022-09-22T08:32:18.583Z,3.03
2022-09-22T08:37:20.610Z,2.40
2022-09-22T08:42:23.471Z,3.20
2022-09-22T08:48:10.588Z,2.80
2022-09-22T08:53:16.517Z,2.53
2022-09-22T08:58:33.508Z,2.33
2022-09-22T09:04:01.781Z,2.25
2022-09-22T09:09:27.628Z,2.45
2022-09-22T09:14:55.972Z,2.60
2022-09-22T09:20:21.704Z,2.35
2022-09-22T09:25:35.877Z,1.80
2022-09-22T09:30:50.148Z,1.88
2022-09-22T09:35:53.626Z,6.28
2022-09-22T09:41:36.440Z,2.55
2022-09-22T09:46:49.383Z,2.60
2022-09-22T09:51:54.881Z,2.58
2022-09-22T09:57:09.537Z,2.83
2022-09-22T10:02:15.136Z,2.70
2022-09-22T10:07:21.701Z,2.00
2022-09-22T10:12:29.755Z,1.90
2022-09-22T10:17:40.215Z,2.08
2022-09-22T10:22:42.648Z,1.63
2022-09-22T10:27:58.440Z,2.28
2022-09-22T10:33:15.053Z,1.50
2022-09-22T10:38:20.640Z,1.70
2022-09-22T10:43:37.317Z,1.25
2022-09-22T10:48:49.586Z,1.85
2022-09-22T10:54:29.913Z,2.08
2022-09-22T10:59:55.609Z,1.67
2022-09-22T11:05:02.763Z,1.20
2022-09-22T11:10:52.691Z,1.20
2022-09-22T11:16:11.615Z,1.20
2022-09-22T11:21:27.427Z,0.93
2022-09-22T11:26:44.207Z,1.15
2022-09-22T11:32:24.778Z,0.80
2022-09-22T11:37:43.162Z,3.65
2022-09-22T11:43:09.308Z,2.27
2022-09-22T11:48:29.769Z,1.55
2022-09-22T11:54:04.917Z,1.55
2022-09-22T11:59:35.950Z,0.77
2022-09-22T12:04:46.583Z,1.30
2022-09-22T12:10:07.082Z,5.32
2022-09-22T12:15:20.808Z,1.20
2022-09-22T12:20:30.227Z,0.85
2022-09-22T12:25:48.646Z,1.08
2022-09-22T12:30:53.873Z,2.80
2022-09-22T12:35:56.826Z,1.90
2022-09-22T12:41:02.873Z,0.55
2022-09-22T12:46:18.845Z,1.00
2022-09-22T12:51:26.386Z,0.55
2022-09-22T12:57:01.961Z,0.77
2022-09-22T13:02:18.702Z,1.33
2022-09-22T13:07:41.429Z,2.85
2022-09-22T13:13:06.175Z,0.60
2022-09-22T13:18:29.769Z,0.68
2022-09-22T13:23:31.608Z,1.73
2022-09-22T13:28:33.506Z,1.40
2022-09-22T13:33:36.228Z,0.75
2022-09-22T13:38:43.407Z,0.80
2022-09-22T13:43:48.741Z,1.85
2022-09-22T13:48:55.417Z,2.53
2022-09-22T13:53:57.884Z,0.70
2022-09-22T13:59:02.889Z,3.92
2022-09-22T14:04:24.616Z,0.70
2022-09-22T14:09:26.676Z,0.73
2022-09-22T14:14:28.984Z,0.82
2022-09-22T14:19:37.298Z,0.68
2022-09-22T14:24:47.272Z,0.63
2022-09-22T14:29:52.488Z,0.65
2022-09-22T14:35:00.968Z,0.75
2022-09-22T14:40:07.143Z,1.17
2022-09-22T14:45:08.906Z,0.90
2022-09-22T14:50:20.031Z,0.63
2022-09-22T14:55:39.029Z,0.60
2022-09-22T15:01:10.431Z,1.00
2022-09-22T15:06:14.460Z,0.80
2022-09-22T15:11:16.570Z,0.77
2022-09-22T15:16:37.233Z,8.25
2022-09-22T15:21:46.894Z,8.27
2022-09-22T15:26:48.770Z,1.85
2022-09-22T15:31:50.392Z,0.70
2022-09-22T15:36:53.202Z,0.75
2022-09-22T15:41:55.381Z,0.90
2022-09-22T15:47:01.243Z,1.48
2022-09-22T15:52:04.878Z,1.92
2022-09-22T15:57:06.560Z,1.40
2022-09-22T16:02:11.804Z,0.60
2022-09-22T16:07:14.223Z,0.55
2022-09-22T16:12:17.965Z,0.60
2022-09-22T16:17:24.616Z,0.40
2022-09-22T16:22:26.180Z,0.50
2022-09-22T16:27:29.423Z,0.95
2022-09-22T16:32:32.489Z,0.68
2022-09-22T16:37:34.405Z,0.90
2022-09-22T16:42:39.069Z,0.90
2022-09-22T16:47:40.714Z,0.73
2022-09-22T16:52:42.503Z,0.70
2022-09-22T16:57:44.156Z,0.73
2022-09-22T17:02:46.829Z,0.60
2022-09-22T17:07:49.996Z,0.60
2022-09-22T17:12:52.335Z,0.80
2022-09-22T17:17:53.862Z,0.75
2022-09-22T17:22:55.925Z,0.63
2022-09-22T17:27:57.819Z,0.82
2022-09-22T17:33:01.362Z,1.00
2022-09-22T17:38:03.157Z,0.80
2022-09-22T17:43:05.573Z,0.90
2022-09-22T17:48:26.580Z,0.73
2022-09-22T17:53:46.418Z,0.80
2022-09-22T17:58:48.210Z,0.75
2022-09-22T18:03:49.911Z,0.68
2022-09-22T18:08:51.880Z,0.80
2022-09-22T18:13:56.209Z,0.77
2022-09-22T18:18:58.287Z,0.70
2022-09-22T18:24:00.715Z,1.60
2022-09-22T18:29:04.429Z,5.65
2022-09-22T18:34:09.804Z,5.75
2022-09-22T18:39:13.096Z,3.10
2022-09-22T18:44:18.777Z,3.17
2022-09-22T18:49:21.582Z,2.75
2022-09-22T18:54:24.742Z,5.50
2022-09-22T18:59:28.027Z,3.60
2022-09-22T19:04:30.189Z,3.20
2022-09-22T19:09:33.093Z,3.13
2022-09-22T19:14:39.267Z,7.70
2022-09-22T19:19:42.231Z,17.92
2022-09-22T19:24:48.203Z,9.43
2022-09-22T19:29:50.673Z,5.03
2022-09-22T19:34:54.779Z,5.65
2022-09-22T19:39:56.803Z,4.82
2022-09-22T19:44:59.196Z,3.10
2022-09-22T19:50:00.990Z,3.50
2022-09-22T19:55:02.630Z,1.60
2022-09-22T20:00:08.807Z,1.27
2022-09-22T20:05:22.114Z,1.55
2022-09-22T20:10:24.305Z,1.67
2022-09-22T20:15:27.543Z,1.65
2022-09-22T20:20:31.742Z,15.73
2022-09-22T20:25:33.599Z,16.73
2022-09-22T20:30:35.271Z,7.80
2022-09-22T20:35:36.869Z,2.22
2022-09-22T20:40:39.438Z,1.25
2022-09-22T20:45:42.905Z,1.48
2022-09-22T20:51:02.722Z,1.08
2022-09-22T20:56:12.002Z,1.10
2022-09-22T21:06:18.072Z,1.00
2022-09-22T21:11:20.304Z,1.42
2022-09-22T21:16:22.923Z,1.90
2022-09-22T21:21:24.732Z,1.40
2022-09-22T21:26:26.495Z,1.42
2022-09-22T21:31:28.412Z,2.03
2022-09-22T21:36:30.256Z,2.70
2022-09-22T21:41:32.301Z,6.80
2022-09-22T21:46:41.096Z,4.65
2022-09-22T21:51:44.404Z,3.13
2022-09-22T21:56:46.549Z,1.80
2022-09-22T22:01:48.532Z,1.20
2022-09-22T22:06:50.627Z,1.10
2022-09-22T22:11:58.022Z,1.20
2022-09-22T22:17:02.103Z,1.00
2022-09-22T22:22:04.233Z,1.13
2022-09-22T22:27:09.891Z,1.30
2022-09-22T22:32:11.780Z,1.38
2022-09-22T22:37:13.558Z,1.20
2022-09-22T22:42:15.110Z,1.10
2022-09-22T22:47:17.345Z,0.88
2022-09-22T22:52:19.300Z,1.20
2022-09-22T22:57:21.401Z,1.00
2022-09-22T23:02:23.596Z,0.95
2022-09-22T23:07:25.278Z,1.02
2022-09-22T23:12:27.102Z,1.33
2022-09-22T23:17:28.676Z,1.40
2022-09-22T23:22:30.633Z,1.42
2022-09-22T23:27:33.024Z,1.50
2022-09-22T23:32:34.606Z,1.70
2022-09-22T23:37:36.633Z,1.52
2022-09-22T23:42:38.457Z,1.67
2022-09-22T23:47:40.229Z,1.52
2022-09-22T23:52:41.988Z,1.55
2022-09-22T23:57:43.572Z,1.30
